Terminal Aerodrome Forecast
Issued by NWS

Home | Current Version | Previous Version | Text Only | Print | Product List | Glossary On
Versions: 1 2 3 4 5 6 7 8 9 10 11 12 13 14 15 16 17 18 19 20 21 22 23 24 25 26 27 28 29 30 31 32 33 34
000
FTAK31 PANC 160333 AAA
TAFAHO
TAF AMD
PAHO 160333Z 1604/1624 06007KT P6SM -SHRA SCT025 BKN050
      TEMPO 1604/1608 4SM -SHRA BKN035
     FM160800 24006KT 6SM -SHRA BKN020 OVC040
     FM161800 VRB03KT 6SM BR BKN020
     FM162300 VRB03KT P6SM SCT020 BKN060=

USA.gov is the U.S. government's official web portal to all federal, state and local government web resources and services.